Middle River (Iowa), Indianola (05486490)

StateIowaLatestUnknown (14 cfs)
RiverMiddle RiverRatingObservedEstimated
Updated2022-09-25 22:15 (34 minutes ago)Flood - The river is flooding. Obstacles can be treacherous or deadly. The river should be avoided at this stage for casual trips and definitely for the inexperienced. Trips should be attempted only with protective gear and equipment.Flood(none)(none)
Discharge14 cfs (median: 25 cfs)High - The river is high and potentially dangerous, especially for the young and / or inexperienced. Normal stream obstacles are sometimes difficult to navigate. Extended distances can be attempted, but canoe travel may not be advisable.High(none)(none)
Height6.64 feetGood - Conditions are ideal for a canoe or kayak. Boats typically will drag on fewer than one-quarter of riffles, if at all, and portages are unnecessary or rare. Normal float lengths can be attempted without a problem.Good(none)(none)
TrendFalling (falling over 24 hours)Low - River is low but can still be floated. Some riffles are okay but most come with significant dragging and might need a portage. Float lengths should be reduced to accommodate low flow, dragging, and portages.Low(none)(none)
USGSExternal icon USGS Site (External icon Duck Duck Go Maps)Poor - River is too low to float comfortably. Most or all riffles will drag or must be portaged and some obstacles (such as slick shelf rock) cause undue problems. Avoid the river at this stage for casual paddling trips.Poor(none)(none)

Trending Data

Plot Image

Trips for Middle River (Iowa), Indianola (05486490)

DateStartEndDistanceConditionDischargeHeightFishingDetails
Click for details2021-11-20 Pammel State Park Pammel State Park Total trip distance: 3.3 miles3.3 Low 75 7.35 None NoneNone Turner, SkipTurner, Skip Solo up and back, no access at Harmon Avenue. Indianola gauge 88.1 ft3/min, 7.35 ft.Solo up and back, no access at Harmon Avenue. Indianola gauge 88.1 ft3/min, 7.35 ft. USGS Gauge Data:
Indianola (05486490)
Discharge: 75
Height: 7.35
<b>USGS Gauge Data:</b></br />Indianola (05486490)<br />Discharge: 75<br />Height: 7.35
Source: TurnerSource: Turner

A total of 1 rows are displayed.

Trip Summary for Middle River (Iowa), Indianola (05486490)

Miles3.3
Trips1
People1
Dates1
Years1
Months1
Rows1
Sources1

Condition Descriptions

Fishing Conditions

Fish Species

Notes

Classic Trip List

The classic River Trips application is still available for use. It is updated with the new system using a data retrofit. It is no longer maintained. The original River Trips application is no longer updated (as of 1 Dec 2016) but can be checked for errors or for the condition of the data before it was converted to the new system.

Gauge Data Table

ObservationHeightDischargeMaximum
Discharge
Minimum
Discharge
Mean
Discharge
P05P10P20P25P50
(Median)
P75P80P90P95
2022-09-25 22:15 6.64 14 4960 (1993) 1 (1968) 237 6 6 8 10 25 159 199 480 1140
2022-09-25 21:15 6.65 15 4960 (1993) 1 (1968) 237 6 6 8 10 25 159 199 480 1140
2022-09-25 20:15 6.65 15 4960 (1993) 1 (1968) 237 6 6 8 10 25 159 199 480 1140
2022-09-25 19:15 6.65 15 4960 (1993) 1 (1968) 237 6 6 8 10 25 159 199 480 1140
2022-09-25 18:15 6.65 15 4960 (1993) 1 (1968) 237 6 6 8 10 25 159 199 480 1140
2022-09-25 17:15 6.65 15 4960 (1993) 1 (1968) 237 6 6 8 10 25 159 199 480 1140
2022-09-25 16:15 6.61 13 4960 (1993) 1 (1968) 237 6 6 8 10 25 159 199 480 1140
2022-09-25 15:15 6.64 14 4960 (1993) 1 (1968) 237 6 6 8 10 25 159 199 480 1140
2022-09-25 14:15 6.64 14 4960 (1993) 1 (1968) 237 6 6 8 10 25 159 199 480 1140
2022-09-25 13:15 6.64 14 4960 (1993) 1 (1968) 237 6 6 8 10 25 159 199 480 1140
2022-09-25 12:15 6.64 14 4960 (1993) 1 (1968) 237 6 6 8 10 25 159 199 480 1140
2022-09-25 11:15 6.65 15 4960 (1993) 1 (1968) 237 6 6 8 10 25 159 199 480 1140
2022-09-25 10:15 6.65 15 4960 (1993) 1 (1968) 237 6 6 8 10 25 159 199 480 1140
2022-09-25 09:15 6.65 15 4960 (1993) 1 (1968) 237 6 6 8 10 25 159 199 480 1140
2022-09-25 08:15 6.65 15 4960 (1993) 1 (1968) 237 6 6 8 10 25 159 199 480 1140
2022-09-25 07:15 6.65 15 4960 (1993) 1 (1968) 237 6 6 8 10 25 159 199 480 1140
2022-09-25 06:15 6.65 15 4960 (1993) 1 (1968) 237 6 6 8 10 25 159 199 480 1140
2022-09-25 05:15 6.65 15 4960 (1993) 1 (1968) 237 6 6 8 10 25 159 199 480 1140
2022-09-25 04:15 6.65 15 4960 (1993) 1 (1968) 237 6 6 8 10 25 159 199 480 1140
2022-09-25 03:15 6.66 15 4960 (1993) 1 (1968) 237 6 6 8 10 25 159 199 480 1140
2022-09-25 02:15 6.66 15 4960 (1993) 1 (1968) 237 6 6 8 10 25 159 199 480 1140
2022-09-25 01:15 6.67 16 4960 (1993) 1 (1968) 237 6 6 8 10 25 159 199 480 1140
2022-09-25 00:15 6.67 16 4960 (1993) 1 (1968) 237 6 6 8 10 25 159 199 480 1140
2022-09-24 23:15 6.67 16 1780 (1960) 2 (1968) 145 5 7 9 11 27 193 227 445 540
2022-09-24 22:15 6.67 16 1780 (1960) 2 (1968) 145 5 7 9 11 27 193 227 445 540
2022-09-24 21:15 6.67 16 1780 (1960) 2 (1968) 145 5 7 9 11 27 193 227 445 540
2022-09-24 20:15 6.67 16 1780 (1960) 2 (1968) 145 5 7 9 11 27 193 227 445 540
2022-09-24 19:15 6.67 16 1780 (1960) 2 (1968) 145 5 7 9 11 27 193 227 445 540
2022-09-24 18:15 6.67 16 1780 (1960) 2 (1968) 145 5 7 9 11 27 193 227 445 540
2022-09-24 17:15 6.67 16 1780 (1960) 2 (1968) 145 5 7 9 11 27 193 227 445 540
2022-09-24 16:15 6.67 16 1780 (1960) 2 (1968) 145 5 7 9 11 27 193 227 445 540
2022-09-24 15:15 6.67 16 1780 (1960) 2 (1968) 145 5 7 9 11 27 193 227 445 540
2022-09-24 14:15 6.67 16 1780 (1960) 2 (1968) 145 5 7 9 11 27 193 227 445 540
2022-09-24 13:15 6.68 17 1780 (1960) 2 (1968) 145 5 7 9 11 27 193 227 445 540
2022-09-24 12:15 6.64 14 1780 (1960) 2 (1968) 145 5 7 9 11 27 193 227 445 540
2022-09-24 11:15 6.68 17 1780 (1960) 2 (1968) 145 5 7 9 11 27 193 227 445 540
2022-09-24 10:15 6.68 17 1780 (1960) 2 (1968) 145 5 7 9 11 27 193 227 445 540
2022-09-24 09:15 6.68 17 1780 (1960) 2 (1968) 145 5 7 9 11 27 193 227 445 540
2022-09-24 08:15 6.68 17 1780 (1960) 2 (1968) 145 5 7 9 11 27 193 227 445 540
2022-09-24 07:15 6.68 17 1780 (1960) 2 (1968) 145 5 7 9 11 27 193 227 445 540
2022-09-24 06:15 6.68 17 1780 (1960) 2 (1968) 145 5 7 9 11 27 193 227 445 540
2022-09-24 05:15 6.68 17 1780 (1960) 2 (1968) 145 5 7 9 11 27 193 227 445 540
2022-09-24 04:15 6.68 17 1780 (1960) 2 (1968) 145 5 7 9 11 27 193 227 445 540
2022-09-24 03:15 6.68 17 1780 (1960) 2 (1968) 145 5 7 9 11 27 193 227 445 540
2022-09-24 02:15 6.68 17 1780 (1960) 2 (1968) 145 5 7 9 11 27 193 227 445 540
2022-09-24 01:15 6.68 17 1780 (1960) 2 (1968) 145 5 7 9 11 27 193 227 445 540
2022-09-24 00:15 6.68 17 1780 (1960) 2 (1968) 145 5 7 9 11 27 193 227 445 540
2022-09-23 23:15 6.68 17 1410 (1964) 2 (1968) 137 5 7 10 12 28 137 205 464 749
2022-09-23 22:15 6.69 17 1410 (1964) 2 (1968) 137 5 7 10 12 28 137 205 464 749
2022-09-23 21:15 6.68 17 1410 (1964) 2 (1968) 137 5 7 10 12 28 137 205 464 749
2022-09-23 20:15 6.68 17 1410 (1964) 2 (1968) 137 5 7 10 12 28 137 205 464 749
2022-09-23 19:15 6.68 17 1410 (1964) 2 (1968) 137 5 7 10 12 28 137 205 464 749
2022-09-23 18:15 6.68 17 1410 (1964) 2 (1968) 137 5 7 10 12 28 137 205 464 749
2022-09-23 17:15 6.68 17 1410 (1964) 2 (1968) 137 5 7 10 12 28 137 205 464 749
2022-09-23 16:15 6.68 17 1410 (1964) 2 (1968) 137 5 7 10 12 28 137 205 464 749
2022-09-23 15:15 6.68 17 1410 (1964) 2 (1968) 137 5 7 10 12 28 137 205 464 749
2022-09-23 14:15 6.69 17 1410 (1964) 2 (1968) 137 5 7 10 12 28 137 205 464 749
2022-09-23 13:15 6.68 17 1410 (1964) 2 (1968) 137 5 7 10 12 28 137 205 464 749
2022-09-23 12:15 6.68 17 1410 (1964) 2 (1968) 137 5 7 10 12 28 137 205 464 749
2022-09-23 11:15 6.68 17 1410 (1964) 2 (1968) 137 5 7 10 12 28 137 205 464 749
2022-09-23 10:15 6.67 16 1410 (1964) 2 (1968) 137 5 7 10 12 28 137 205 464 749
2022-09-23 09:15 6.64 14 1410 (1964) 2 (1968) 137 5 7 10 12 28 137 205 464 749
2022-09-23 08:15 6.67 16 1410 (1964) 2 (1968) 137 5 7 10 12 28 137 205 464 749
2022-09-23 07:15 6.67 16 1410 (1964) 2 (1968) 137 5 7 10 12 28 137 205 464 749
2022-09-23 06:15 6.67 16 1410 (1964) 2 (1968) 137 5 7 10 12 28 137 205 464 749
2022-09-23 05:15 6.67 16 1410 (1964) 2 (1968) 137 5 7 10 12 28 137 205 464 749
2022-09-23 04:15 6.67 16 1410 (1964) 2 (1968) 137 5 7 10 12 28 137 205 464 749
2022-09-23 03:15 6.67 16 1410 (1964) 2 (1968) 137 5 7 10 12 28 137 205 464 749
2022-09-23 02:15 6.67 16 1410 (1964) 2 (1968) 137 5 7 10 12 28 137 205 464 749
2022-09-23 01:15 6.67 16 1410 (1964) 2 (1968) 137 5 7 10 12 28 137 205 464 749
2022-09-23 00:15 6.68 17 1410 (1964) 2 (1968) 137 5 7 10 12 28 137 205 464 749
2022-09-22 23:15 6.67 16 1420 (1965) 2 (1968) 132 6 8 10 12 28 132 181 434 724
2022-09-22 22:15 6.68 17 1420 (1965) 2 (1968) 132 6 8 10 12 28 132 181 434 724
2022-09-22 21:15 6.68 17 1420 (1965) 2 (1968) 132 6 8 10 12 28 132 181 434 724
2022-09-22 20:15 6.68 17 1420 (1965) 2 (1968) 132 6 8 10 12 28 132 181 434 724
2022-09-22 19:15 6.68 17 1420 (1965) 2 (1968) 132 6 8 10 12 28 132 181 434 724
2022-09-22 18:15 6.68 17 1420 (1965) 2 (1968) 132 6 8 10 12 28 132 181 434 724
2022-09-22 17:15 6.69 17 1420 (1965) 2 (1968) 132 6 8 10 12 28 132 181 434 724
2022-09-22 16:15 6.68 17 1420 (1965) 2 (1968) 132 6 8 10 12 28 132 181 434 724
2022-09-22 15:15 6.69 17 1420 (1965) 2 (1968) 132 6 8 10 12 28 132 181 434 724
2022-09-22 14:15 6.68 17 1420 (1965) 2 (1968) 132 6 8 10 12 28 132 181 434 724
2022-09-22 13:15 6.69 17 1420 (1965) 2 (1968) 132 6 8 10 12 28 132 181 434 724
2022-09-22 12:15 6.69 17 1420 (1965) 2 (1968) 132 6 8 10 12 28 132 181 434 724
2022-09-22 11:15 6.69 17 1420 (1965) 2 (1968) 132 6 8 10 12 28 132 181 434 724
2022-09-22 10:15 6.69 17 1420 (1965) 2 (1968) 132 6 8 10 12 28 132 181 434 724
2022-09-22 09:15 6.69 17 1420 (1965) 2 (1968) 132 6 8 10 12 28 132 181 434 724
2022-09-22 08:15 6.69 17 1420 (1965) 2 (1968) 132 6 8 10 12 28 132 181 434 724
2022-09-22 07:15 6.69 17 1420 (1965) 2 (1968) 132 6 8 10 12 28 132 181 434 724
2022-09-22 06:15 6.69 17 1420 (1965) 2 (1968) 132 6 8 10 12 28 132 181 434 724
2022-09-22 05:15 6.69 17 1420 (1965) 2 (1968) 132 6 8 10 12 28 132 181 434 724
2022-09-22 04:15 6.69 17 1420 (1965) 2 (1968) 132 6 8 10 12 28 132 181 434 724
2022-09-22 03:15 6.69 17 1420 (1965) 2 (1968) 132 6 8 10 12 28 132 181 434 724
2022-09-22 02:15 6.69 17 1420 (1965) 2 (1968) 132 6 8 10 12 28 132 181 434 724
2022-09-22 01:15 6.68 17 1420 (1965) 2 (1968) 132 6 8 10 12 28 132 181 434 724
2022-09-22 00:15 6.68 17 1420 (1965) 2 (1968) 132 6 8 10 12 28 132 181 434 724
2022-09-21 23:15 6.68 17 4480 (1965) 2 (1968) 187 6 7 10 13 29 140 180 430 977
2022-09-21 22:15 6.68 17 4480 (1965) 2 (1968) 187 6 7 10 13 29 140 180 430 977
2022-09-21 21:15 6.68 17 4480 (1965) 2 (1968) 187 6 7 10 13 29 140 180 430 977
2022-09-21 20:15 6.68 17 4480 (1965) 2 (1968) 187 6 7 10 13 29 140 180 430 977
2022-09-21 19:15 6.67 16 4480 (1965) 2 (1968) 187 6 7 10 13 29 140 180 430 977
2022-09-21 18:15 6.67 16 4480 (1965) 2 (1968) 187 6 7 10 13 29 140 180 430 977
2022-09-21 17:15 6.67 16 4480 (1965) 2 (1968) 187 6 7 10 13 29 140 180 430 977
2022-09-21 16:15 6.67 16 4480 (1965) 2 (1968) 187 6 7 10 13 29 140 180 430 977
2022-09-21 15:15 6.68 17 4480 (1965) 2 (1968) 187 6 7 10 13 29 140 180 430 977
2022-09-21 14:15 6.67 16 4480 (1965) 2 (1968) 187 6 7 10 13 29 140 180 430 977
2022-09-21 13:15 6.67 16 4480 (1965) 2 (1968) 187 6 7 10 13 29 140 180 430 977
2022-09-21 12:15 6.67 16 4480 (1965) 2 (1968) 187 6 7 10 13 29 140 180 430 977
2022-09-21 11:15 6.67 16 4480 (1965) 2 (1968) 187 6 7 10 13 29 140 180 430 977
2022-09-21 10:15 6.67 16 4480 (1965) 2 (1968) 187 6 7 10 13 29 140 180 430 977
2022-09-21 09:15 6.67 16 4480 (1965) 2 (1968) 187 6 7 10 13 29 140 180 430 977
2022-09-21 08:15 6.67 16 4480 (1965) 2 (1968) 187 6 7 10 13 29 140 180 430 977
2022-09-21 07:15 6.66 15 4480 (1965) 2 (1968) 187 6 7 10 13 29 140 180 430 977
2022-09-21 06:15 6.66 15 4480 (1965) 2 (1968) 187 6 7 10 13 29 140 180 430 977
2022-09-21 05:15 6.66 15 4480 (1965) 2 (1968) 187 6 7 10 13 29 140 180 430 977
2022-09-21 04:15 6.66 15 4480 (1965) 2 (1968) 187 6 7 10 13 29 140 180 430 977
2022-09-21 03:15 6.66 15 4480 (1965) 2 (1968) 187 6 7 10 13 29 140 180 430 977
2022-09-21 02:15 6.66 15 4480 (1965) 2 (1968) 187 6 7 10 13 29 140 180 430 977
2022-09-21 01:15 6.67 16 4480 (1965) 2 (1968) 187 6 7 10 13 29 140 180 430 977
2022-09-21 00:15 6.67 16 4480 (1965) 2 (1968) 187 6 7 10 13 29 140 180 430 977
2022-09-20 23:15 6.68 17 2980 (1978) 2 (1968) 168 6 7 10 12 29 141 187 442 677
2022-09-20 22:15 6.68 17 2980 (1978) 2 (1968) 168 6 7 10 12 29 141 187 442 677
2022-09-20 21:15 6.69 17 2980 (1978) 2 (1968) 168 6 7 10 12 29 141 187 442 677
2022-09-20 20:15 6.69 17 2980 (1978) 2 (1968) 168 6 7 10 12 29 141 187 442 677
2022-09-20 19:15 6.69 17 2980 (1978) 2 (1968) 168 6 7 10 12 29 141 187 442 677
2022-09-20 18:15 6.69 17 2980 (1978) 2 (1968) 168 6 7 10 12 29 141 187 442 677
2022-09-20 17:15 6.70 18 2980 (1978) 2 (1968) 168 6 7 10 12 29 141 187 442 677
2022-09-20 16:15 6.70 18 2980 (1978) 2 (1968) 168 6 7 10 12 29 141 187 442 677
2022-09-20 15:15 6.70 18 2980 (1978) 2 (1968) 168 6 7 10 12 29 141 187 442 677
2022-09-20 14:15 6.70 18 2980 (1978) 2 (1968) 168 6 7 10 12 29 141 187 442 677
2022-09-20 13:15 6.70 18 2980 (1978) 2 (1968) 168 6 7 10 12 29 141 187 442 677
2022-09-20 12:15 6.70 18 2980 (1978) 2 (1968) 168 6 7 10 12 29 141 187 442 677
2022-09-20 11:15 6.70 18 2980 (1978) 2 (1968) 168 6 7 10 12 29 141 187 442 677
2022-09-20 10:15 6.70 18 2980 (1978) 2 (1968) 168 6 7 10 12 29 141 187 442 677
2022-09-20 09:15 6.71 18 2980 (1978) 2 (1968) 168 6 7 10 12 29 141 187 442 677
2022-09-20 08:15 6.72 19 2980 (1978) 2 (1968) 168 6 7 10 12 29 141 187 442 677
2022-09-20 07:15 6.72 19 2980 (1978) 2 (1968) 168 6 7 10 12 29 141 187 442 677
2022-09-20 06:15 6.72 19 2980 (1978) 2 (1968) 168 6 7 10 12 29 141 187 442 677
2022-09-20 05:15 6.72 19 2980 (1978) 2 (1968) 168 6 7 10 12 29 141 187 442 677
2022-09-20 04:15 6.72 19 2980 (1978) 2 (1968) 168 6 7 10 12 29 141 187 442 677
2022-09-20 03:15 6.73 20 2980 (1978) 2 (1968) 168 6 7 10 12 29 141 187 442 677
2022-09-20 02:15 6.73 20 2980 (1978) 2 (1968) 168 6 7 10 12 29 141 187 442 677
2022-09-20 01:15 6.73 20 2980 (1978) 2 (1968) 168 6 7 10 12 29 141 187 442 677
2022-09-20 00:15 6.74 20 2980 (1978) 2 (1968) 168 6 7 10 12 29 141 187 442 677
2022-09-19 23:15 6.75 21 1840 (2015) 3 (1968) 161 6 7 10 14 28 161 234 546 794
2022-09-19 22:15 6.75 21 1840 (2015) 3 (1968) 161 6 7 10 14 28 161 234 546 794
2022-09-19 21:15 6.75 21 1840 (2015) 3 (1968) 161 6 7 10 14 28 161 234 546 794
2022-09-19 20:15 6.76 22 1840 (2015) 3 (1968) 161 6 7 10 14 28 161 234 546 794
2022-09-19 19:15 6.76 22 1840 (2015) 3 (1968) 161 6 7 10 14 28 161 234 546 794
2022-09-19 18:15 6.77 23 1840 (2015) 3 (1968) 161 6 7 10 14 28 161 234 546 794
2022-09-19 17:15 6.77 23 1840 (2015) 3 (1968) 161 6 7 10 14 28 161 234 546 794
2022-09-19 16:15 6.77 23 1840 (2015) 3 (1968) 161 6 7 10 14 28 161 234 546 794
2022-09-19 15:15 6.78 23 1840 (2015) 3 (1968) 161 6 7 10 14 28 161 234 546 794
2022-09-19 14:15 6.79 24 1840 (2015) 3 (1968) 161 6 7 10 14 28 161 234 546 794
2022-09-19 13:15 6.79 24 1840 (2015) 3 (1968) 161 6 7 10 14 28 161 234 546 794
2022-09-19 12:15 6.80 25 1840 (2015) 3 (1968) 161 6 7 10 14 28 161 234 546 794
2022-09-19 11:15 6.81 26 1840 (2015) 3 (1968) 161 6 7 10 14 28 161 234 546 794
2022-09-19 10:15 6.81 26 1840 (2015) 3 (1968) 161 6 7 10 14 28 161 234 546 794
2022-09-19 09:15 6.82 27 1840 (2015) 3 (1968) 161 6 7 10 14 28 161 234 546 794
2022-09-19 08:15 6.82 27 1840 (2015) 3 (1968) 161 6 7 10 14 28 161 234 546 794
2022-09-19 07:15 6.82 27 1840 (2015) 3 (1968) 161 6 7 10 14 28 161 234 546 794
2022-09-19 06:15 6.81 26 1840 (2015) 3 (1968) 161 6 7 10 14 28 161 234 546 794
2022-09-19 05:15 6.81 26 1840 (2015) 3 (1968) 161 6 7 10 14 28 161 234 546 794
2022-09-19 04:15 6.81 26 1840 (2015) 3 (1968) 161 6 7 10 14 28 161 234 546 794
2022-09-19 03:15 6.81 26 1840 (2015) 3 (1968) 161 6 7 10 14 28 161 234 546 794
2022-09-19 02:15 6.81 26 1840 (2015) 3 (1968) 161 6 7 10 14 28 161 234 546 794
2022-09-19 01:15 6.81 26 1840 (2015) 3 (1968) 161 6 7 10 14 28 161 234 546 794
2022-09-19 00:15 6.81 26 1840 (2015) 3 (1968) 161 6 7 10 14 28 161 234 546 794
2022-09-18 23:15 6.81 26 2650 (1992) 2 (1968) 207 6 6 9 13 29 131 194 714 1240
2022-09-18 22:15 6.81 26 2650 (1992) 2 (1968) 207 6 6 9 13 29 131 194 714 1240
2022-09-18 21:15 6.81 26 2650 (1992) 2 (1968) 207 6 6 9 13 29 131 194 714 1240
2022-09-18 20:15 6.80 25 2650 (1992) 2 (1968) 207 6 6 9 13 29 131 194 714 1240
2022-09-18 19:15 6.80 25 2650 (1992) 2 (1968) 207 6 6 9 13 29 131 194 714 1240
2022-09-18 18:15 6.79 24 2650 (1992) 2 (1968) 207 6 6 9 13 29 131 194 714 1240
2022-09-18 17:15 6.80 25 2650 (1992) 2 (1968) 207 6 6 9 13 29 131 194 714 1240
2022-09-18 16:15 6.79 24 2650 (1992) 2 (1968) 207 6 6 9 13 29 131 194 714 1240
2022-09-18 15:15 6.79 24 2650 (1992) 2 (1968) 207 6 6 9 13 29 131 194 714 1240
2022-09-18 14:15 6.78 23 2650 (1992) 2 (1968) 207 6 6 9 13 29 131 194 714 1240
2022-09-18 13:15 6.77 23 2650 (1992) 2 (1968) 207 6 6 9 13 29 131 194 714 1240
2022-09-18 12:15 6.77 23 2650 (1992) 2 (1968) 207 6 6 9 13 29 131 194 714 1240
2022-09-18 11:15 6.76 22 2650 (1992) 2 (1968) 207 6 6 9 13 29 131 194 714 1240
2022-09-18 10:15 6.77 23 2650 (1992) 2 (1968) 207 6 6 9 13 29 131 194 714 1240
2022-09-18 09:15 6.77 23 2650 (1992) 2 (1968) 207 6 6 9 13 29 131 194 714 1240
2022-09-18 08:15 6.77 23 2650 (1992) 2 (1968) 207 6 6 9 13 29 131 194 714 1240
2022-09-18 07:15 6.78 23 2650 (1992) 2 (1968) 207 6 6 9 13 29 131 194 714 1240
2022-09-18 06:15 6.79 24 2650 (1992) 2 (1968) 207 6 6 9 13 29 131 194 714 1240
2022-09-18 05:15 6.81 26 2650 (1992) 2 (1968) 207 6 6 9 13 29 131 194 714 1240
2022-09-18 04:15 6.81 26 2650 (1992) 2 (1968) 207 6 6 9 13 29 131 194 714 1240
2022-09-18 03:15 6.75 21 2650 (1992) 2 (1968) 207 6 6 9 13 29 131 194 714 1240
2022-09-18 02:15 6.75 21 2650 (1992) 2 (1968) 207 6 6 9 13 29 131 194 714 1240
2022-09-18 01:15 6.75 21 2650 (1992) 2 (1968) 207 6 6 9 13 29 131 194 714 1240
2022-09-18 00:15 6.75 21 2650 (1992) 2 (1968) 207 6 6 9 13 29 131 194 714 1240

A total of 191 rows are displayed for years 1941 through 2021.